sensor_id;sensor_type;location;lat;lon;timestamp;temperature;humidity
3310;DHT22;1667;53.238;10.394;2023-03-11T00:02:01;5.00;99.90
3310;DHT22;1667;53.238;10.394;2023-03-11T00:07:04;5.10;99.90
3310;DHT22;1667;53.238;10.394;2023-03-11T00:12:05;5.10;99.90
3310;DHT22;1667;53.238;10.394;2023-03-11T00:17:04;5.00;99.90
3310;DHT22;1667;53.238;10.394;2023-03-11T00:22:02;5.40;99.90
3310;DHT22;1667;53.238;10.394;2023-03-11T00:27:01;5.20;99.90
3310;DHT22;1667;53.238;10.394;2023-03-11T00:32:02;5.60;99.90
3310;DHT22;1667;53.238;10.394;2023-03-11T00:37:00;5.30;99.90
3310;DHT22;1667;53.238;10.394;2023-03-11T00:41:59;5.30;99.90
3310;DHT22;1667;53.238;10.394;2023-03-11T00:46:58;5.30;99.90
3310;DHT22;1667;53.238;10.394;2023-03-11T00:51:57;5.50;99.90
3310;DHT22;1667;53.238;10.394;2023-03-11T00:56:56;5.30;99.90
3310;DHT22;1667;53.238;10.394;2023-03-11T01:01:58;5.30;99.90
3310;DHT22;1667;53.238;10.394;2023-03-11T01:06:58;5.30;99.90
3310;DHT22;1667;53.238;10.394;2023-03-11T01:11:56;5.50;99.90
3310;DHT22;1667;53.238;10.394;2023-03-11T01:16:55;5.40;99.90
3310;DHT22;1667;53.238;10.394;2023-03-11T01:21:53;5.30;99.90
3310;DHT22;1667;53.238;10.394;2023-03-11T01:26:53;5.40;99.90
3310;DHT22;1667;53.238;10.394;2023-03-11T01:31:53;5.50;99.90
3310;DHT22;1667;53.238;10.394;2023-03-11T01:36:52;5.30;99.90
3310;DHT22;1667;53.238;10.394;2023-03-11T01:41:50;5.30;99.90
3310;DHT22;1667;53.238;10.394;2023-03-11T01:52:40;5.30;99.90
3310;DHT22;1667;53.238;10.394;2023-03-11T01:57:43;5.50;99.90
3310;DHT22;1667;53.238;10.394;2023-03-11T02:02:47;5.40;99.90
3310;DHT22;1667;53.238;10.394;2023-03-11T02:07:49;5.30;99.90
3310;DHT22;1667;53.238;10.394;2023-03-11T02:12:50;5.30;99.90
3310;DHT22;1667;53.238;10.394;2023-03-11T02:17:54;5.30;99.90
3310;DHT22;1667;53.238;10.394;2023-03-11T02:22:55;5.40;99.90
3310;DHT22;1667;53.238;10.394;2023-03-11T02:27:57;5.30;99.90
3310;DHT22;1667;53.238;10.394;2023-03-11T02:32:58;5.30;99.90
3310;DHT22;1667;53.238;10.394;2023-03-11T02:37:57;5.30;99.90
3310;DHT22;1667;53.238;10.394;2023-03-11T02:42:59;5.40;99.90
3310;DHT22;1667;53.238;10.394;2023-03-11T02:47:59;5.30;99.90
3310;DHT22;1667;53.238;10.394;2023-03-11T02:53:00;5.30;99.90
3310;DHT22;1667;53.238;10.394;2023-03-11T02:58:02;5.70;99.90
3310;DHT22;1667;53.238;10.394;2023-03-11T03:03:01;5.40;99.90
3310;DHT22;1667;53.238;10.394;2023-03-11T03:07:59;5.40;99.90
3310;DHT22;1667;53.238;10.394;2023-03-11T03:12:59;5.40;99.90
3310;DHT22;1667;53.238;10.394;2023-03-11T03:17:59;5.40;99.90
3310;DHT22;1667;53.238;10.394;2023-03-11T03:22:58;5.40;99.90
3310;DHT22;1667;53.238;10.394;2023-03-11T03:27:59;5.40;99.90
3310;DHT22;1667;53.238;10.394;2023-03-11T03:33:03;5.40;99.90
3310;DHT22;1667;53.238;10.394;2023-03-11T03:38:01;5.40;99.90
3310;DHT22;1667;53.238;10.394;2023-03-11T03:43:01;5.40;99.90
3310;DHT22;1667;53.238;10.394;2023-03-11T03:48:02;5.40;99.90
3310;DHT22;1667;53.238;10.394;2023-03-11T03:53:05;5.50;99.90
3310;DHT22;1667;53.238;10.394;2023-03-11T03:58:04;5.50;99.90
3310;DHT22;1667;53.238;10.394;2023-03-11T04:03:06;5.50;99.90
3310;DHT22;1667;53.238;10.394;2023-03-11T04:08:17;5.50;99.90
3310;DHT22;1667;53.238;10.394;2023-03-11T04:13:16;5.40;99.90
3310;DHT22;1667;53.238;10.394;2023-03-11T04:18:16;5.40;99.90
3310;DHT22;1667;53.238;10.394;2023-03-11T04:23:15;5.40;99.90
3310;DHT22;1667;53.238;10.394;2023-03-11T04:28:14;5.40;99.90
3310;DHT22;1667;53.238;10.394;2023-03-11T04:33:14;5.60;99.90
3310;DHT22;1667;53.238;10.394;2023-03-11T04:38:14;5.40;99.90
3310;DHT22;1667;53.238;10.394;2023-03-11T04:43:13;5.40;99.90
3310;DHT22;1667;53.238;10.394;2023-03-11T04:48:12;5.40;99.90
3310;DHT22;1667;53.238;10.394;2023-03-11T04:53:11;5.50;99.90
3310;DHT22;1667;53.238;10.394;2023-03-11T04:58:11;5.40;99.90
3310;DHT22;1667;53.238;10.394;2023-03-11T05:03:10;5.80;99.90
3310;DHT22;1667;53.238;10.394;2023-03-11T05:08:09;5.40;99.90
3310;DHT22;1667;53.238;10.394;2023-03-11T05:13:10;5.60;99.90
3310;DHT22;1667;53.238;10.394;2023-03-11T05:18:10;5.40;99.90
3310;DHT22;1667;53.238;10.394;2023-03-11T05:23:09;5.40;99.90
3310;DHT22;1667;53.238;10.394;2023-03-11T05:28:09;5.50;99.90
3310;DHT22;1667;53.238;10.394;2023-03-11T05:33:15;5.50;99.90
3310;DHT22;1667;53.238;10.394;2023-03-11T05:38:14;5.80;99.90
3310;DHT22;1667;53.238;10.394;2023-03-11T05:43:13;5.40;99.90
3310;DHT22;1667;53.238;10.394;2023-03-11T05:48:19;5.40;99.90
3310;DHT22;1667;53.238;10.394;2023-03-11T05:53:17;5.40;99.90
3310;DHT22;1667;53.238;10.394;2023-03-11T05:58:16;5.70;99.90
3310;DHT22;1667;53.238;10.394;2023-03-11T06:03:15;5.40;99.90
3310;DHT22;1667;53.238;10.394;2023-03-11T06:08:16;5.40;99.90
3310;DHT22;1667;53.238;10.394;2023-03-11T06:13:15;5.40;99.90
3310;DHT22;1667;53.238;10.394;2023-03-11T06:18:18;5.40;99.90
3310;DHT22;1667;53.238;10.394;2023-03-11T06:23:19;5.40;99.90
3310;DHT22;1667;53.238;10.394;2023-03-11T06:28:18;5.40;99.90
3310;DHT22;1667;53.238;10.394;2023-03-11T06:33:16;5.40;99.90
3310;DHT22;1667;53.238;10.394;2023-03-11T06:38:15;5.50;99.90
3310;DHT22;1667;53.238;10.394;2023-03-11T06:43:15;5.40;99.90
3310;DHT22;1667;53.238;10.394;2023-03-11T06:48:16;5.50;99.90
3310;DHT22;1667;53.238;10.394;2023-03-11T06:53:15;5.50;99.90
3310;DHT22;1667;53.238;10.394;2023-03-11T06:58:16;5.60;99.90
3310;DHT22;1667;53.238;10.394;2023-03-11T07:03:14;5.60;99.90
3310;DHT22;1667;53.238;10.394;2023-03-11T07:08:14;5.50;99.90
3310;DHT22;1667;53.238;10.394;2023-03-11T07:13:12;5.50;99.90
3310;DHT22;1667;53.238;10.394;2023-03-11T07:18:13;5.50;99.90
3310;DHT22;1667;53.238;10.394;2023-03-11T07:23:11;5.60;99.90
3310;DHT22;1667;53.238;10.394;2023-03-11T07:28:10;5.50;99.90
3310;DHT22;1667;53.238;10.394;2023-03-11T07:33:08;5.60;99.90
3310;DHT22;1667;53.238;10.394;2023-03-11T07:38:09;5.90;99.90
3310;DHT22;1667;53.238;10.394;2023-03-11T07:43:08;5.60;99.90
3310;DHT22;1667;53.238;10.394;2023-03-11T07:48:06;5.50;99.90
3310;DHT22;1667;53.238;10.394;2023-03-11T07:53:05;5.70;99.90
3310;DHT22;1667;53.238;10.394;2023-03-11T07:58:04;5.50;99.90
3310;DHT22;1667;53.238;10.394;2023-03-11T08:03:03;5.80;99.90
3310;DHT22;1667;53.238;10.394;2023-03-11T08:08:02;5.50;99.90
3310;DHT22;1667;53.238;10.394;2023-03-11T08:13:00;5.50;99.90
3310;DHT22;1667;53.238;10.394;2023-03-11T08:18:00;5.40;99.90
3310;DHT22;1667;53.238;10.394;2023-03-11T08:22:59;5.50;99.90
3310;DHT22;1667;53.238;10.394;2023-03-11T08:27:57;5.80;99.90
3310;DHT22;1667;53.238;10.394;2023-03-11T08:32:55;5.80;99.90
3310;DHT22;1667;53.238;10.394;2023-03-11T08:37:55;5.80;99.90
3310;DHT22;1667;53.238;10.394;2023-03-11T08:42:54;5.50;99.90
3310;DHT22;1667;53.238;10.394;2023-03-11T08:47:53;5.50;99.90
3310;DHT22;1667;53.238;10.394;2023-03-11T08:52:51;5.80;99.90
3310;DHT22;1667;53.238;10.394;2023-03-11T08:57:52;5.90;99.90
3310;DHT22;1667;53.238;10.394;2023-03-11T09:02:51;5.60;99.90
3310;DHT22;1667;53.238;10.394;2023-03-11T09:07:49;5.60;99.90
3310;DHT22;1667;53.238;10.394;2023-03-11T09:12:48;5.90;99.90
3310;DHT22;1667;53.238;10.394;2023-03-11T09:17:48;5.60;99.90
3310;DHT22;1667;53.238;10.394;2023-03-11T09:22:47;5.70;99.90
3310;DHT22;1667;53.238;10.394;2023-03-11T09:27:45;5.70;99.90
3310;DHT22;1667;53.238;10.394;2023-03-11T09:32:44;5.70;99.90
3310;DHT22;1667;53.238;10.394;2023-03-11T09:37:44;5.80;99.90
3310;DHT22;1667;53.238;10.394;2023-03-11T09:42:47;5.90;99.90
3310;DHT22;1667;53.238;10.394;2023-03-11T09:48:00;5.90;99.90
3310;DHT22;1667;53.238;10.394;2023-03-11T09:53:11;5.90;99.90
3310;DHT22;1667;53.238;10.394;2023-03-11T09:58:20;5.90;99.90
3310;DHT22;1667;53.238;10.394;2023-03-11T10:03:26;5.90;99.90
3310;DHT22;1667;53.238;10.394;2023-03-11T10:08:32;5.90;99.90
3310;DHT22;1667;53.238;10.394;2023-03-11T10:13:35;6.20;99.90
3310;DHT22;1667;53.238;10.394;2023-03-11T10:18:44;6.00;99.90
3310;DHT22;1667;53.238;10.394;2023-03-11T10:24:00;6.00;99.90
3310;DHT22;1667;53.238;10.394;2023-03-11T10:29:12;6.30;99.90
3310;DHT22;1667;53.238;10.394;2023-03-11T10:34:17;6.00;99.90
3310;DHT22;1667;53.238;10.394;2023-03-11T10:39:21;6.10;99.90
3310;DHT22;1667;53.238;10.394;2023-03-11T10:44:23;6.10;99.90
3310;DHT22;1667;53.238;10.394;2023-03-11T10:49:22;6.20;99.90
3310;DHT22;1667;53.238;10.394;2023-03-11T10:54:25;6.20;99.90
3310;DHT22;1667;53.238;10.394;2023-03-11T10:59:26;6.30;99.90
3310;DHT22;1667;53.238;10.394;2023-03-11T11:04:29;6.20;99.90
3310;DHT22;1667;53.238;10.394;2023-03-11T11:09:29;6.40;99.90
3310;DHT22;1667;53.238;10.394;2023-03-11T11:14:45;6.20;99.90
3310;DHT22;1667;53.238;10.394;2023-03-11T11:19:45;6.20;99.90
3310;DHT22;1667;53.238;10.394;2023-03-11T11:24:46;6.20;99.90
3310;DHT22;1667;53.238;10.394;2023-03-11T11:30:00;6.30;99.90
3310;DHT22;1667;53.238;10.394;2023-03-11T11:35:03;6.30;99.90
3310;DHT22;1667;53.238;10.394;2023-03-11T11:40:05;6.50;99.90
3310;DHT22;1667;53.238;10.394;2023-03-11T11:45:13;6.20;99.90
3310;DHT22;1667;53.238;10.394;2023-03-11T11:50:26;6.20;99.90
3310;DHT22;1667;53.238;10.394;2023-03-11T11:55:28;6.30;99.90
3310;DHT22;1667;53.238;10.394;2023-03-11T12:00:33;6.30;99.90
3310;DHT22;1667;53.238;10.394;2023-03-11T12:05:37;6.30;99.90
3310;DHT22;1667;53.238;10.394;2023-03-11T12:10:44;6.40;99.90
3310;DHT22;1667;53.238;10.394;2023-03-11T12:15:49;6.60;99.90
3310;DHT22;1667;53.238;10.394;2023-03-11T12:20:52;6.70;99.90
3310;DHT22;1667;53.238;10.394;2023-03-11T12:26:08;6.80;99.90
3310;DHT22;1667;53.238;10.394;2023-03-11T12:31:11;6.60;99.90
3310;DHT22;1667;53.238;10.394;2023-03-11T12:36:22;6.60;99.90
3310;DHT22;1667;53.238;10.394;2023-03-11T12:41:33;6.60;99.90
3310;DHT22;1667;53.238;10.394;2023-03-11T12:52:23;6.70;99.90
3310;DHT22;1667;53.238;10.394;2023-03-11T12:57:31;6.70;99.90
3310;DHT22;1667;53.238;10.394;2023-03-11T13:08:25;6.60;99.90
3310;DHT22;1667;53.238;10.394;2023-03-11T13:13:39;7.00;99.90
3310;DHT22;1667;53.238;10.394;2023-03-11T13:18:38;6.80;99.90
3310;DHT22;1667;53.238;10.394;2023-03-11T13:23:38;6.70;99.90
3310;DHT22;1667;53.238;10.394;2023-03-11T13:34:29;6.80;99.90
3310;DHT22;1667;53.238;10.394;2023-03-11T13:39:41;6.80;99.90
3310;DHT22;1667;53.238;10.394;2023-03-11T13:44:44;6.90;99.90
3310;DHT22;1667;53.238;10.394;2023-03-11T13:49:48;6.90;99.90
3310;DHT22;1667;53.238;10.394;2023-03-11T13:54:54;7.20;99.90
3310;DHT22;1667;53.238;10.394;2023-03-11T14:00:04;7.30;99.90
3310;DHT22;1667;53.238;10.394;2023-03-11T14:05:15;7.10;99.90
3310;DHT22;1667;53.238;10.394;2023-03-11T14:10:20;7.10;99.90
3310;DHT22;1667;53.238;10.394;2023-03-11T14:15:23;7.10;99.90
3310;DHT22;1667;53.238;10.394;2023-03-11T14:20:23;7.10;99.90
3310;DHT22;1667;53.238;10.394;2023-03-11T14:25:24;7.10;99.90
3310;DHT22;1667;53.238;10.394;2023-03-11T14:30:27;7.20;99.90
3310;DHT22;1667;53.238;10.394;2023-03-11T14:35:25;7.20;99.90
3310;DHT22;1667;53.238;10.394;2023-03-11T14:40:27;7.20;99.90
3310;DHT22;1667;53.238;10.394;2023-03-11T14:45:28;7.20;99.90
3310;DHT22;1667;53.238;10.394;2023-03-11T14:50:28;7.20;99.90
3310;DHT22;1667;53.238;10.394;2023-03-11T14:55:30;7.20;99.90
3310;DHT22;1667;53.238;10.394;2023-03-11T15:00:35;7.30;99.90
3310;DHT22;1667;53.238;10.394;2023-03-11T15:05:37;7.30;99.90
3310;DHT22;1667;53.238;10.394;2023-03-11T15:10:39;7.30;99.90
3310;DHT22;1667;53.238;10.394;2023-03-11T15:15:54;7.40;99.90
3310;DHT22;1667;53.238;10.394;2023-03-11T15:21:05;7.40;99.90
3310;DHT22;1667;53.238;10.394;2023-03-11T15:26:04;7.30;99.90
3310;DHT22;1667;53.238;10.394;2023-03-11T15:31:27;7.30;99.90
3310;DHT22;1667;53.238;10.394;2023-03-11T15:36:28;7.40;99.90
3310;DHT22;1667;53.238;10.394;2023-03-11T15:41:27;7.30;99.90
3310;DHT22;1667;53.238;10.394;2023-03-11T15:46:27;7.30;99.90
3310;DHT22;1667;53.238;10.394;2023-03-11T15:51:25;7.30;99.90
3310;DHT22;1667;53.238;10.394;2023-03-11T15:56:24;7.20;99.90
3310;DHT22;1667;53.238;10.394;2023-03-11T16:01:23;7.20;99.90
3310;DHT22;1667;53.238;10.394;2023-03-11T16:06:25;7.40;99.90
3310;DHT22;1667;53.238;10.394;2023-03-11T16:11:24;7.10;99.90
3310;DHT22;1667;53.238;10.394;2023-03-11T16:16:23;7.10;99.90
3310;DHT22;1667;53.238;10.394;2023-03-11T16:21:32;7.10;99.90
3310;DHT22;1667;53.238;10.394;2023-03-11T16:26:33;7.10;99.90
3310;DHT22;1667;53.238;10.394;2023-03-11T16:31:31;7.30;99.90
3310;DHT22;1667;53.238;10.394;2023-03-11T16:36:32;7.00;99.90
3310;DHT22;1667;53.238;10.394;2023-03-11T16:41:39;7.00;99.90
3310;DHT22;1667;53.238;10.394;2023-03-11T16:46:39;7.00;99.90
3310;DHT22;1667;53.238;10.394;2023-03-11T16:51:38;7.30;99.90
3310;DHT22;1667;53.238;10.394;2023-03-11T16:56:37;7.20;99.90
3310;DHT22;1667;53.238;10.394;2023-03-11T17:01:37;6.80;99.90
3310;DHT22;1667;53.238;10.394;2023-03-11T17:06:36;6.80;99.90
3310;DHT22;1667;53.238;10.394;2023-03-11T17:11:37;6.80;99.90
3310;DHT22;1667;53.238;10.394;2023-03-11T17:16:36;6.80;99.90
3310;DHT22;1667;53.238;10.394;2023-03-11T17:21:34;6.80;99.90
3310;DHT22;1667;53.238;10.394;2023-03-11T17:26:33;6.80;99.90
3310;DHT22;1667;53.238;10.394;2023-03-11T17:31:33;6.80;99.90
3310;DHT22;1667;53.238;10.394;2023-03-11T17:43:22;6.70;99.90
3310;DHT22;1667;53.238;10.394;2023-03-11T17:48:22;7.00;99.90
3310;DHT22;1667;53.238;10.394;2023-03-11T17:53:20;6.70;99.90
3310;DHT22;1667;53.238;10.394;2023-03-11T17:58:18;6.60;99.90
3310;DHT22;1667;53.238;10.394;2023-03-11T18:03:17;6.60;99.90
3310;DHT22;1667;53.238;10.394;2023-03-11T18:08:17;6.60;99.90
3310;DHT22;1667;53.238;10.394;2023-03-11T18:13:15;6.50;99.90
3310;DHT22;1667;53.238;10.394;2023-03-11T18:18:13;6.50;99.90
3310;DHT22;1667;53.238;10.394;2023-03-11T18:23:12;6.50;99.90
3310;DHT22;1667;53.238;10.394;2023-03-11T18:28:11;6.50;99.90
3310;DHT22;1667;53.238;10.394;2023-03-11T18:33:09;6.90;99.90
3310;DHT22;1667;53.238;10.394;2023-03-11T18:38:08;6.50;99.90
3310;DHT22;1667;53.238;10.394;2023-03-11T18:43:08;6.60;99.90
3310;DHT22;1667;53.238;10.394;2023-03-11T18:48:09;6.30;99.90
3310;DHT22;1667;53.238;10.394;2023-03-11T18:53:07;6.30;99.90
3310;DHT22;1667;53.238;10.394;2023-03-11T18:58:06;6.20;99.90
3310;DHT22;1667;53.238;10.394;2023-03-11T19:03:05;6.20;99.90
3310;DHT22;1667;53.238;10.394;2023-03-11T19:08:05;6.40;99.90
3310;DHT22;1667;53.238;10.394;2023-03-11T19:13:04;6.10;99.90
3310;DHT22;1667;53.238;10.394;2023-03-11T19:18:02;6.30;99.90
3310;DHT22;1667;53.238;10.394;2023-03-11T19:23:05;6.00;99.90
3310;DHT22;1667;53.238;10.394;2023-03-11T19:28:04;6.30;99.90
3310;DHT22;1667;53.238;10.394;2023-03-11T19:33:02;5.90;99.90
3310;DHT22;1667;53.238;10.394;2023-03-11T19:38:01;5.90;99.90
3310;DHT22;1667;53.238;10.394;2023-03-11T19:43:01;5.80;99.90
3310;DHT22;1667;53.238;10.394;2023-03-11T19:48:01;5.80;99.90
3310;DHT22;1667;53.238;10.394;2023-03-11T19:53:00;5.80;99.90
3310;DHT22;1667;53.238;10.394;2023-03-11T19:57:58;5.80;99.90
3310;DHT22;1667;53.238;10.394;2023-03-11T20:02:59;5.90;99.90
3310;DHT22;1667;53.238;10.394;2023-03-11T20:07:58;5.70;99.90
3310;DHT22;1667;53.238;10.394;2023-03-11T20:12:57;5.80;99.90
3310;DHT22;1667;53.238;10.394;2023-03-11T20:18:00;6.10;99.90
3310;DHT22;1667;53.238;10.394;2023-03-11T20:23:00;5.70;99.90
3310;DHT22;1667;53.238;10.394;2023-03-11T20:27:59;5.70;99.90
3310;DHT22;1667;53.238;10.394;2023-03-11T20:32:59;5.80;99.90
3310;DHT22;1667;53.238;10.394;2023-03-11T20:37:58;6.00;99.90
3310;DHT22;1667;53.238;10.394;2023-03-11T20:43:00;5.70;99.90
3310;DHT22;1667;53.238;10.394;2023-03-11T20:48:00;5.70;99.90
3310;DHT22;1667;53.238;10.394;2023-03-11T20:52:58;5.70;99.90
3310;DHT22;1667;53.238;10.394;2023-03-11T20:57:57;5.70;99.90
3310;DHT22;1667;53.238;10.394;2023-03-11T21:02:56;5.90;99.90
3310;DHT22;1667;53.238;10.394;2023-03-11T21:07:56;5.70;99.90
3310;DHT22;1667;53.238;10.394;2023-03-11T21:12:54;5.70;99.90
3310;DHT22;1667;53.238;10.394;2023-03-11T21:17:53;5.90;99.90
3310;DHT22;1667;53.238;10.394;2023-03-11T21:22:51;5.70;99.90
3310;DHT22;1667;53.238;10.394;2023-03-11T21:27:51;5.70;99.90
3310;DHT22;1667;53.238;10.394;2023-03-11T21:32:49;5.70;99.90
3310;DHT22;1667;53.238;10.394;2023-03-11T21:37:48;5.70;99.90
3310;DHT22;1667;53.238;10.394;2023-03-11T21:42:46;5.70;99.90
3310;DHT22;1667;53.238;10.394;2023-03-11T21:47:46;5.70;99.90
3310;DHT22;1667;53.238;10.394;2023-03-11T21:52:45;5.70;99.90
3310;DHT22;1667;53.238;10.394;2023-03-11T21:57:44;5.80;99.90
3310;DHT22;1667;53.238;10.394;2023-03-11T22:02:42;5.80;99.90
3310;DHT22;1667;53.238;10.394;2023-03-11T22:07:42;5.90;99.90
3310;DHT22;1667;53.238;10.394;2023-03-11T22:12:41;5.80;99.90
3310;DHT22;1667;53.238;10.394;2023-03-11T22:17:40;6.10;99.90
3310;DHT22;1667;53.238;10.394;2023-03-11T22:22:38;5.90;99.90
3310;DHT22;1667;53.238;10.394;2023-03-11T22:27:38;5.70;99.90
3310;DHT22;1667;53.238;10.394;2023-03-11T22:32:37;5.70;99.90
3310;DHT22;1667;53.238;10.394;2023-03-11T22:37:36;6.00;99.90
3310;DHT22;1667;53.238;10.394;2023-03-11T22:42:35;6.00;99.90
3310;DHT22;1667;53.238;10.394;2023-03-11T22:47:35;5.80;99.90
3310;DHT22;1667;53.238;10.394;2023-03-11T22:52:34;5.80;99.90
3310;DHT22;1667;53.238;10.394;2023-03-11T22:57:32;5.80;99.90
3310;DHT22;1667;53.238;10.394;2023-03-11T23:02:36;5.70;99.90
3310;DHT22;1667;53.238;10.394;2023-03-11T23:07:34;5.70;99.90
3310;DHT22;1667;53.238;10.394;2023-03-11T23:12:34;5.80;99.90
3310;DHT22;1667;53.238;10.394;2023-03-11T23:17:33;5.70;99.90
3310;DHT22;1667;53.238;10.394;2023-03-11T23:22:35;5.70;99.90
3310;DHT22;1667;53.238;10.394;2023-03-11T23:27:33;5.70;99.90
3310;DHT22;1667;53.238;10.394;2023-03-11T23:32:32;5.60;99.90
3310;DHT22;1667;53.238;10.394;2023-03-11T23:37:30;5.60;99.90
3310;DHT22;1667;53.238;10.394;2023-03-11T23:42:31;5.60;99.90
3310;DHT22;1667;53.238;10.394;2023-03-11T23:47:30;5.60;99.90
3310;DHT22;1667;53.238;10.394;2023-03-11T23:52:28;5.80;99.90
3310;DHT22;1667;53.238;10.394;2023-03-11T23:57:27;5.60;99.90
